sensor_id;sensor_type;location;lat;lon;timestamp;temperature;humidity
45945;DHT22;31655;48.972;10.686;2024-01-30T00:00:34;1.60;99.90
45945;DHT22;31655;48.972;10.686;2024-01-30T00:03:00;1.50;99.90
45945;DHT22;31655;48.972;10.686;2024-01-30T00:05:25;1.40;99.90
45945;DHT22;31655;48.972;10.686;2024-01-30T00:07:51;1.30;99.90
45945;DHT22;31655;48.972;10.686;2024-01-30T00:10:17;2.00;99.90
45945;DHT22;31655;48.972;10.686;2024-01-30T00:12:42;1.40;99.90
45945;DHT22;31655;48.972;10.686;2024-01-30T00:15:08;1.30;99.90
45945;DHT22;31655;48.972;10.686;2024-01-30T00:17:38;1.20;99.90
45945;DHT22;31655;48.972;10.686;2024-01-30T00:20:07;1.20;99.90
45945;DHT22;31655;48.972;10.686;2024-01-30T00:22:35;1.40;99.90
45945;DHT22;31655;48.972;10.686;2024-01-30T00:27:27;1.60;99.90
45945;DHT22;31655;48.972;10.686;2024-01-30T00:29:53;1.70;99.90
45945;DHT22;31655;48.972;10.686;2024-01-30T00:32:18;1.70;99.90
45945;DHT22;31655;48.972;10.686;2024-01-30T00:34:47;1.80;99.90
45945;DHT22;31655;48.972;10.686;2024-01-30T00:37:12;1.80;99.90
45945;DHT22;31655;48.972;10.686;2024-01-30T00:39:38;1.90;99.90
45945;DHT22;31655;48.972;10.686;2024-01-30T00:42:03;1.80;99.90
45945;DHT22;31655;48.972;10.686;2024-01-30T00:44:29;1.80;99.90
45945;DHT22;31655;48.972;10.686;2024-01-30T00:46:55;2.00;99.90
45945;DHT22;31655;48.972;10.686;2024-01-30T00:49:21;2.10;99.90
45945;DHT22;31655;48.972;10.686;2024-01-30T00:51:46;2.30;99.90
45945;DHT22;31655;48.972;10.686;2024-01-30T00:54:12;2.40;99.90
45945;DHT22;31655;48.972;10.686;2024-01-30T00:56:37;2.30;99.90
45945;DHT22;31655;48.972;10.686;2024-01-30T00:59:03;2.20;99.90
45945;DHT22;31655;48.972;10.686;2024-01-30T01:01:28;2.40;99.90
45945;DHT22;31655;48.972;10.686;2024-01-30T01:03:54;4.40;99.90
45945;DHT22;31655;48.972;10.686;2024-01-30T01:06:20;2.50;99.90
45945;DHT22;31655;48.972;10.686;2024-01-30T01:08:45;2.50;99.90
45945;DHT22;31655;48.972;10.686;2024-01-30T01:11:11;2.40;99.90
45945;DHT22;31655;48.972;10.686;2024-01-30T01:13:36;2.60;99.90
45945;DHT22;31655;48.972;10.686;2024-01-30T01:16:02;2.60;99.90
45945;DHT22;31655;48.972;10.686;2024-01-30T01:18:27;2.50;99.90
45945;DHT22;31655;48.972;10.686;2024-01-30T01:20:54;3.10;99.90
45945;DHT22;31655;48.972;10.686;2024-01-30T01:23:20;2.20;99.90
45945;DHT22;31655;48.972;10.686;2024-01-30T01:28:11;2.00;99.90
45945;DHT22;31655;48.972;10.686;2024-01-30T01:30:38;2.00;99.90
45945;DHT22;31655;48.972;10.686;2024-01-30T01:33:04;1.90;99.90
45945;DHT22;31655;48.972;10.686;2024-01-30T01:35:32;1.80;99.90
45945;DHT22;31655;48.972;10.686;2024-01-30T01:37:57;1.80;99.90
45945;DHT22;31655;48.972;10.686;2024-01-30T01:40:26;1.80;99.90
45945;DHT22;31655;48.972;10.686;2024-01-30T01:42:53;1.80;99.90
45945;DHT22;31655;48.972;10.686;2024-01-30T01:45:20;1.80;99.90
45945;DHT22;31655;48.972;10.686;2024-01-30T01:47:48;1.80;99.90
45945;DHT22;31655;48.972;10.686;2024-01-30T01:50:16;1.70;99.90
45945;DHT22;31655;48.972;10.686;2024-01-30T01:52:55;1.80;99.90
45945;DHT22;31655;48.972;10.686;2024-01-30T01:57:51;1.80;99.90
45945;DHT22;31655;48.972;10.686;2024-01-30T02:00:20;1.80;99.90
45945;DHT22;31655;48.972;10.686;2024-01-30T02:02:47;1.80;99.90
45945;DHT22;31655;48.972;10.686;2024-01-30T02:05:14;1.70;99.90
45945;DHT22;31655;48.972;10.686;2024-01-30T02:07:39;1.80;99.90
45945;DHT22;31655;48.972;10.686;2024-01-30T02:10:08;1.80;99.90
45945;DHT22;31655;48.972;10.686;2024-01-30T02:12:34;1.80;99.90
45945;DHT22;31655;48.972;10.686;2024-01-30T02:14:59;1.80;99.90
45945;DHT22;31655;48.972;10.686;2024-01-30T02:17:26;1.80;99.90
45945;DHT22;31655;48.972;10.686;2024-01-30T02:19:53;1.80;99.90
45945;DHT22;31655;48.972;10.686;2024-01-30T02:22:19;1.80;99.90
45945;DHT22;31655;48.972;10.686;2024-01-30T02:24:45;1.80;99.90
45945;DHT22;31655;48.972;10.686;2024-01-30T02:27:11;1.80;99.90
45945;DHT22;31655;48.972;10.686;2024-01-30T02:29:36;1.90;99.90
45945;DHT22;31655;48.972;10.686;2024-01-30T02:32:03;1.90;99.90
45945;DHT22;31655;48.972;10.686;2024-01-30T02:34:28;1.90;99.90
45945;DHT22;31655;48.972;10.686;2024-01-30T02:36:54;1.90;99.90
45945;DHT22;31655;48.972;10.686;2024-01-30T02:39:19;1.90;99.90
45945;DHT22;31655;48.972;10.686;2024-01-30T02:41:45;1.90;99.90
45945;DHT22;31655;48.972;10.686;2024-01-30T02:44:15;1.80;99.90
45945;DHT22;31655;48.972;10.686;2024-01-30T02:46:44;1.70;99.90
45945;DHT22;31655;48.972;10.686;2024-01-30T02:49:11;1.70;99.90
45945;DHT22;31655;48.972;10.686;2024-01-30T02:51:37;1.70;99.90
45945;DHT22;31655;48.972;10.686;2024-01-30T02:54:03;1.60;99.90
45945;DHT22;31655;48.972;10.686;2024-01-30T02:56:28;1.50;99.90
45945;DHT22;31655;48.972;10.686;2024-01-30T02:58:55;1.50;99.90
45945;DHT22;31655;48.972;10.686;2024-01-30T03:01:24;1.50;99.90
45945;DHT22;31655;48.972;10.686;2024-01-30T03:03:50;1.50;99.90
45945;DHT22;31655;48.972;10.686;2024-01-30T03:06:16;1.40;99.90
45945;DHT22;31655;48.972;10.686;2024-01-30T03:08:46;1.50;99.90
45945;DHT22;31655;48.972;10.686;2024-01-30T03:11:12;1.40;99.90
45945;DHT22;31655;48.972;10.686;2024-01-30T03:13:37;1.50;99.90
45945;DHT22;31655;48.972;10.686;2024-01-30T03:16:04;1.50;99.90
45945;DHT22;31655;48.972;10.686;2024-01-30T03:20:59;1.40;99.90
45945;DHT22;31655;48.972;10.686;2024-01-30T03:23:27;1.40;99.90
45945;DHT22;31655;48.972;10.686;2024-01-30T03:25:52;2.70;99.90
45945;DHT22;31655;48.972;10.686;2024-01-30T03:28:19;1.40;99.90
45945;DHT22;31655;48.972;10.686;2024-01-30T03:30:44;1.40;99.90
45945;DHT22;31655;48.972;10.686;2024-01-30T03:33:10;1.40;99.90
45945;DHT22;31655;48.972;10.686;2024-01-30T03:35:38;1.30;99.90
45945;DHT22;31655;48.972;10.686;2024-01-30T03:38:04;1.30;99.90
45945;DHT22;31655;48.972;10.686;2024-01-30T03:40:29;1.30;99.90
45945;DHT22;31655;48.972;10.686;2024-01-30T03:42:58;1.30;99.90
45945;DHT22;31655;48.972;10.686;2024-01-30T03:45:25;3.40;99.90
45945;DHT22;31655;48.972;10.686;2024-01-30T03:47:50;1.30;99.90
45945;DHT22;31655;48.972;10.686;2024-01-30T03:50:16;1.30;99.90
45945;DHT22;31655;48.972;10.686;2024-01-30T03:52:45;1.20;99.90
45945;DHT22;31655;48.972;10.686;2024-01-30T03:55:13;1.30;99.90
45945;DHT22;31655;48.972;10.686;2024-01-30T04:00:05;1.30;99.90
45945;DHT22;31655;48.972;10.686;2024-01-30T04:02:35;1.20;99.90
45945;DHT22;31655;48.972;10.686;2024-01-30T04:05:03;1.20;99.90
45945;DHT22;31655;48.972;10.686;2024-01-30T04:07:29;1.30;99.90
45945;DHT22;31655;48.972;10.686;2024-01-30T04:09:54;1.20;99.90
45945;DHT22;31655;48.972;10.686;2024-01-30T04:12:21;1.20;99.90
45945;DHT22;31655;48.972;10.686;2024-01-30T04:14:46;1.20;99.90
45945;DHT22;31655;48.972;10.686;2024-01-30T04:17:12;1.10;99.90
45945;DHT22;31655;48.972;10.686;2024-01-30T04:19:40;1.10;99.90
45945;DHT22;31655;48.972;10.686;2024-01-30T04:22:05;1.10;99.90
45945;DHT22;31655;48.972;10.686;2024-01-30T04:24:31;1.10;99.90
45945;DHT22;31655;48.972;10.686;2024-01-30T04:26:57;1.10;99.90
45945;DHT22;31655;48.972;10.686;2024-01-30T04:29:24;1.00;99.90
45945;DHT22;31655;48.972;10.686;2024-01-30T04:34:21;1.10;99.90
45945;DHT22;31655;48.972;10.686;2024-01-30T04:36:47;1.10;99.90
45945;DHT22;31655;48.972;10.686;2024-01-30T04:39:16;1.00;99.90
45945;DHT22;31655;48.972;10.686;2024-01-30T04:41:42;1.00;99.90
45945;DHT22;31655;48.972;10.686;2024-01-30T04:44:11;1.00;99.90
45945;DHT22;31655;48.972;10.686;2024-01-30T04:46:38;1.10;99.90
45945;DHT22;31655;48.972;10.686;2024-01-30T04:49:03;1.10;99.90
45945;DHT22;31655;48.972;10.686;2024-01-30T04:51:36;1.00;99.90
45945;DHT22;31655;48.972;10.686;2024-01-30T04:54:01;1.10;99.90
45945;DHT22;31655;48.972;10.686;2024-01-30T04:56:29;1.10;99.90
45945;DHT22;31655;48.972;10.686;2024-01-30T04:58:58;1.10;99.90
45945;DHT22;31655;48.972;10.686;2024-01-30T05:01:25;1.00;99.90
45945;DHT22;31655;48.972;10.686;2024-01-30T05:03:50;0.90;99.90
45945;DHT22;31655;48.972;10.686;2024-01-30T05:06:28;0.90;99.90
45945;DHT22;31655;48.972;10.686;2024-01-30T05:08:54;0.80;99.90
45945;DHT22;31655;48.972;10.686;2024-01-30T05:11:19;0.70;99.90
45945;DHT22;31655;48.972;10.686;2024-01-30T05:13:48;0.70;99.90
45945;DHT22;31655;48.972;10.686;2024-01-30T05:16:15;1.20;99.90
45945;DHT22;31655;48.972;10.686;2024-01-30T05:18:40;4.10;99.90
45945;DHT22;31655;48.972;10.686;2024-01-30T05:21:06;0.80;99.90
45945;DHT22;31655;48.972;10.686;2024-01-30T05:23:32;0.70;99.90
45945;DHT22;31655;48.972;10.686;2024-01-30T05:28:30;0.80;99.90
45945;DHT22;31655;48.972;10.686;2024-01-30T05:30:58;0.70;99.90
45945;DHT22;31655;48.972;10.686;2024-01-30T05:33:23;0.60;99.90
45945;DHT22;31655;48.972;10.686;2024-01-30T05:35:52;0.50;99.90
45945;DHT22;31655;48.972;10.686;2024-01-30T05:38:20;0.70;99.90
45945;DHT22;31655;48.972;10.686;2024-01-30T05:40:47;0.60;99.90
45945;DHT22;31655;48.972;10.686;2024-01-30T05:43:13;0.60;99.90
45945;DHT22;31655;48.972;10.686;2024-01-30T05:45:40;0.50;99.90
45945;DHT22;31655;48.972;10.686;2024-01-30T05:48:05;0.50;99.90
45945;DHT22;31655;48.972;10.686;2024-01-30T05:50:31;0.40;99.90
45945;DHT22;31655;48.972;10.686;2024-01-30T05:52:57;0.30;99.90
45945;DHT22;31655;48.972;10.686;2024-01-30T05:55:23;0.40;99.90
45945;DHT22;31655;48.972;10.686;2024-01-30T05:57:49;0.30;99.90
45945;DHT22;31655;48.972;10.686;2024-01-30T06:00:19;0.40;99.90
45945;DHT22;31655;48.972;10.686;2024-01-30T06:02:45;0.50;99.90
45945;DHT22;31655;48.972;10.686;2024-01-30T06:05:11;0.50;99.90
45945;DHT22;31655;48.972;10.686;2024-01-30T06:07:38;0.60;99.90
45945;DHT22;31655;48.972;10.686;2024-01-30T06:10:04;0.50;99.90
45945;DHT22;31655;48.972;10.686;2024-01-30T06:12:31;0.50;99.90
45945;DHT22;31655;48.972;10.686;2024-01-30T06:14:58;0.50;99.90
45945;DHT22;31655;48.972;10.686;2024-01-30T06:17:28;0.40;99.90
45945;DHT22;31655;48.972;10.686;2024-01-30T06:19:53;-0.20;99.90
45945;DHT22;31655;48.972;10.686;2024-01-30T06:22:19;0.30;99.90
45945;DHT22;31655;48.972;10.686;2024-01-30T06:24:45;0.30;99.90
45945;DHT22;31655;48.972;10.686;2024-01-30T06:27:13;0.20;99.90
45945;DHT22;31655;48.972;10.686;2024-01-30T06:29:40;0.20;99.90
45945;DHT22;31655;48.972;10.686;2024-01-30T06:32:06;0.30;99.90
45945;DHT22;31655;48.972;10.686;2024-01-30T06:34:32;0.40;99.90
45945;DHT22;31655;48.972;10.686;2024-01-30T06:37:00;0.30;99.90
45945;DHT22;31655;48.972;10.686;2024-01-30T06:39:31;0.20;99.90
45945;DHT22;31655;48.972;10.686;2024-01-30T06:41:58;0.10;99.90
45945;DHT22;31655;48.972;10.686;2024-01-30T06:44:24;0.00;99.90
45945;DHT22;31655;48.972;10.686;2024-01-30T06:46:51;0.00;99.90
45945;DHT22;31655;48.972;10.686;2024-01-30T06:49:17;0.10;99.90
45945;DHT22;31655;48.972;10.686;2024-01-30T06:51:43;0.10;99.90
45945;DHT22;31655;48.972;10.686;2024-01-30T06:54:12;0.10;99.90
45945;DHT22;31655;48.972;10.686;2024-01-30T06:56:38;0.10;99.90
45945;DHT22;31655;48.972;10.686;2024-01-30T06:59:03;0.00;99.90
45945;DHT22;31655;48.972;10.686;2024-01-30T07:01:29;0.10;99.90
45945;DHT22;31655;48.972;10.686;2024-01-30T07:03:55;0.20;99.90
45945;DHT22;31655;48.972;10.686;2024-01-30T07:06:21;0.20;99.90
45945;DHT22;31655;48.972;10.686;2024-01-30T07:08:52;0.30;99.90
45945;DHT22;31655;48.972;10.686;2024-01-30T07:11:22;0.40;99.90
45945;DHT22;31655;48.972;10.686;2024-01-30T07:13:50;0.40;99.90
45945;DHT22;31655;48.972;10.686;2024-01-30T07:16:16;0.50;99.90
45945;DHT22;31655;48.972;10.686;2024-01-30T07:18:41;0.60;99.90
45945;DHT22;31655;48.972;10.686;2024-01-30T07:21:09;0.70;99.90
45945;DHT22;31655;48.972;10.686;2024-01-30T07:26:04;1.20;99.90
45945;DHT22;31655;48.972;10.686;2024-01-30T07:28:31;5.00;99.90
45945;DHT22;31655;48.972;10.686;2024-01-30T07:33:24;1.60;99.90
45945;DHT22;31655;48.972;10.686;2024-01-30T07:35:52;1.70;99.90
45945;DHT22;31655;48.972;10.686;2024-01-30T07:38:19;1.70;99.90
45945;DHT22;31655;48.972;10.686;2024-01-30T07:40:44;1.80;99.90
45945;DHT22;31655;48.972;10.686;2024-01-30T07:43:10;2.10;99.90
45945;DHT22;31655;48.972;10.686;2024-01-30T07:45:36;2.60;99.90
45945;DHT22;31655;48.972;10.686;2024-01-30T07:48:03;3.10;99.90
45945;DHT22;31655;48.972;10.686;2024-01-30T07:50:28;4.10;99.90
45945;DHT22;31655;48.972;10.686;2024-01-30T07:52:56;4.20;99.90
45945;DHT22;31655;48.972;10.686;2024-01-30T07:55:22;4.30;99.90
45945;DHT22;31655;48.972;10.686;2024-01-30T07:57:54;4.40;99.90
45945;DHT22;31655;48.972;10.686;2024-01-30T08:00:21;4.70;99.90
45945;DHT22;31655;48.972;10.686;2024-01-30T08:02:47;5.00;99.90
45945;DHT22;31655;48.972;10.686;2024-01-30T08:05:12;5.30;99.90
45945;DHT22;31655;48.972;10.686;2024-01-30T08:07:43;5.50;99.90
45945;DHT22;31655;48.972;10.686;2024-01-30T08:10:11;6.10;99.90
45945;DHT22;31655;48.972;10.686;2024-01-30T08:12:36;6.80;99.90
45945;DHT22;31655;48.972;10.686;2024-01-30T08:15:02;6.80;99.90
45945;DHT22;31655;48.972;10.686;2024-01-30T08:17:28;7.40;99.90
45945;DHT22;31655;48.972;10.686;2024-01-30T08:19:54;10.50;99.90
45945;DHT22;31655;48.972;10.686;2024-01-30T08:22:19;9.30;99.90
45945;DHT22;31655;48.972;10.686;2024-01-30T08:24:45;10.80;99.90
45945;DHT22;31655;48.972;10.686;2024-01-30T08:27:10;9.30;99.90
45945;DHT22;31655;48.972;10.686;2024-01-30T08:29:37;8.80;99.90
45945;DHT22;31655;48.972;10.686;2024-01-30T08:32:04;10.10;99.90
45945;DHT22;31655;48.972;10.686;2024-01-30T08:34:29;8.90;99.90
45945;DHT22;31655;48.972;10.686;2024-01-30T08:36:55;8.20;99.90
45945;DHT22;31655;48.972;10.686;2024-01-30T08:39:20;8.40;99.90
45945;DHT22;31655;48.972;10.686;2024-01-30T08:41:46;8.70;99.90
45945;DHT22;31655;48.972;10.686;2024-01-30T08:44:11;8.80;99.90
45945;DHT22;31655;48.972;10.686;2024-01-30T08:46:37;9.10;99.90
45945;DHT22;31655;48.972;10.686;2024-01-30T08:49:03;9.40;99.90
45945;DHT22;31655;48.972;10.686;2024-01-30T08:51:30;10.00;99.90
45945;DHT22;31655;48.972;10.686;2024-01-30T08:53:55;10.20;99.90
45945;DHT22;31655;48.972;10.686;2024-01-30T08:56:21;10.40;99.90
45945;DHT22;31655;48.972;10.686;2024-01-30T08:58:46;11.10;99.90
45945;DHT22;31655;48.972;10.686;2024-01-30T09:01:12;10.90;99.90
45945;DHT22;31655;48.972;10.686;2024-01-30T09:03:38;10.30;99.90
45945;DHT22;31655;48.972;10.686;2024-01-30T09:06:12;10.60;99.90
45945;DHT22;31655;48.972;10.686;2024-01-30T09:08:38;10.40;99.90
45945;DHT22;31655;48.972;10.686;2024-01-30T09:11:13;10.20;99.90
45945;DHT22;31655;48.972;10.686;2024-01-30T09:13:39;10.40;99.90
45945;DHT22;31655;48.972;10.686;2024-01-30T09:16:05;11.10;99.90
45945;DHT22;31655;48.972;10.686;2024-01-30T09:18:31;10.90;99.90
45945;DHT22;31655;48.972;10.686;2024-01-30T09:20:57;10.80;99.90
45945;DHT22;31655;48.972;10.686;2024-01-30T09:23:23;10.50;99.90
45945;DHT22;31655;48.972;10.686;2024-01-30T09:25:49;10.60;99.90
45945;DHT22;31655;48.972;10.686;2024-01-30T09:28:14;10.50;99.90
45945;DHT22;31655;48.972;10.686;2024-01-30T09:30:40;10.80;99.90
45945;DHT22;31655;48.972;10.686;2024-01-30T09:33:06;10.40;99.90
45945;DHT22;31655;48.972;10.686;2024-01-30T09:35:32;10.50;99.90
45945;DHT22;31655;48.972;10.686;2024-01-30T09:37:57;10.50;99.90
45945;DHT22;31655;48.972;10.686;2024-01-30T09:40:24;10.40;99.90
45945;DHT22;31655;48.972;10.686;2024-01-30T09:42:50;10.20;99.90
45945;DHT22;31655;48.972;10.686;2024-01-30T09:45:18;9.60;99.90
45945;DHT22;31655;48.972;10.686;2024-01-30T09:47:45;9.00;99.90
45945;DHT22;31655;48.972;10.686;2024-01-30T09:50:13;11.30;99.90
45945;DHT22;31655;48.972;10.686;2024-01-30T09:52:40;8.60;99.90
45945;DHT22;31655;48.972;10.686;2024-01-30T09:55:06;8.40;99.90
45945;DHT22;31655;48.972;10.686;2024-01-30T09:57:32;8.30;99.90
45945;DHT22;31655;48.972;10.686;2024-01-30T09:59:58;8.40;99.90
45945;DHT22;31655;48.972;10.686;2024-01-30T10:02:24;8.40;99.90
45945;DHT22;31655;48.972;10.686;2024-01-30T10:04:50;8.70;99.90
45945;DHT22;31655;48.972;10.686;2024-01-30T10:07:19;8.90;99.90
45945;DHT22;31655;48.972;10.686;2024-01-30T10:09:45;9.00;99.90
45945;DHT22;31655;48.972;10.686;2024-01-30T10:12:12;9.20;99.90
45945;DHT22;31655;48.972;10.686;2024-01-30T10:14:42;9.30;99.90
45945;DHT22;31655;48.972;10.686;2024-01-30T10:17:11;9.30;99.90
45945;DHT22;31655;48.972;10.686;2024-01-30T10:19:38;9.60;99.90
45945;DHT22;31655;48.972;10.686;2024-01-30T10:22:04;9.60;99.90
45945;DHT22;31655;48.972;10.686;2024-01-30T10:24:30;9.60;99.90
45945;DHT22;31655;48.972;10.686;2024-01-30T10:26:56;9.60;99.90
45945;DHT22;31655;48.972;10.686;2024-01-30T10:29:22;9.60;99.90
45945;DHT22;31655;48.972;10.686;2024-01-30T10:32:00;10.00;99.90
45945;DHT22;31655;48.972;10.686;2024-01-30T10:34:26;10.30;99.90
45945;DHT22;31655;48.972;10.686;2024-01-30T10:37:07;9.80;99.90
45945;DHT22;31655;48.972;10.686;2024-01-30T10:39:41;9.60;99.90
45945;DHT22;31655;48.972;10.686;2024-01-30T10:42:15;9.70;99.90
45945;DHT22;31655;48.972;10.686;2024-01-30T10:44:56;9.70;99.90
45945;DHT22;31655;48.972;10.686;2024-01-30T10:47:29;9.60;99.90
45945;DHT22;31655;48.972;10.686;2024-01-30T10:49:55;9.70;99.90
45945;DHT22;31655;48.972;10.686;2024-01-30T10:52:23;9.70;99.90
45945;DHT22;31655;48.972;10.686;2024-01-30T10:54:51;9.90;99.90
45945;DHT22;31655;48.972;10.686;2024-01-30T10:57:17;10.30;99.90
45945;DHT22;31655;48.972;10.686;2024-01-30T10:59:43;10.30;99.90
45945;DHT22;31655;48.972;10.686;2024-01-30T11:02:11;10.00;99.90
45945;DHT22;31655;48.972;10.686;2024-01-30T11:04:37;10.10;99.90
45945;DHT22;31655;48.972;10.686;2024-01-30T11:07:13;10.20;99.90
45945;DHT22;31655;48.972;10.686;2024-01-30T11:09:40;10.20;99.90
45945;DHT22;31655;48.972;10.686;2024-01-30T11:12:12;10.00;99.90
45945;DHT22;31655;48.972;10.686;2024-01-30T11:14:38;9.80;99.90
45945;DHT22;31655;48.972;10.686;2024-01-30T11:17:05;9.60;99.90
45945;DHT22;31655;48.972;10.686;2024-01-30T11:19:31;9.90;99.90
45945;DHT22;31655;48.972;10.686;2024-01-30T11:21:57;9.80;99.90
45945;DHT22;31655;48.972;10.686;2024-01-30T11:24:24;10.10;99.90
45945;DHT22;31655;48.972;10.686;2024-01-30T11:26:55;10.10;99.90
45945;DHT22;31655;48.972;10.686;2024-01-30T11:29:25;9.90;99.90
45945;DHT22;31655;48.972;10.686;2024-01-30T11:32:00;10.00;99.90
45945;DHT22;31655;48.972;10.686;2024-01-30T11:34:25;10.00;99.90
45945;DHT22;31655;48.972;10.686;2024-01-30T11:36:59;10.20;99.90
45945;DHT22;31655;48.972;10.686;2024-01-30T11:39:28;10.20;99.90
45945;DHT22;31655;48.972;10.686;2024-01-30T11:41:55;10.10;99.90
45945;DHT22;31655;48.972;10.686;2024-01-30T11:44:20;10.30;99.90
45945;DHT22;31655;48.972;10.686;2024-01-30T11:46:51;10.30;99.90
45945;DHT22;31655;48.972;10.686;2024-01-30T11:49:17;10.00;99.90
45945;DHT22;31655;48.972;10.686;2024-01-30T11:51:44;10.10;99.90
45945;DHT22;31655;48.972;10.686;2024-01-30T11:54:10;11.40;99.90
45945;DHT22;31655;48.972;10.686;2024-01-30T11:56:37;10.00;99.90
45945;DHT22;31655;48.972;10.686;2024-01-30T11:59:04;9.80;99.90
45945;DHT22;31655;48.972;10.686;2024-01-30T12:01:31;9.90;99.90
45945;DHT22;31655;48.972;10.686;2024-01-30T12:03:57;10.00;99.90
45945;DHT22;31655;48.972;10.686;2024-01-30T12:06:23;10.00;99.90
45945;DHT22;31655;48.972;10.686;2024-01-30T12:09:02;10.10;99.90
45945;DHT22;31655;48.972;10.686;2024-01-30T12:11:47;10.30;99.90
45945;DHT22;31655;48.972;10.686;2024-01-30T12:14:14;10.40;99.90
45945;DHT22;31655;48.972;10.686;2024-01-30T12:16:40;10.40;99.90
45945;DHT22;31655;48.972;10.686;2024-01-30T12:19:07;10.20;99.90
45945;DHT22;31655;48.972;10.686;2024-01-30T12:21:33;10.40;99.90
45945;DHT22;31655;48.972;10.686;2024-01-30T12:23:59;10.80;99.90
45945;DHT22;31655;48.972;10.686;2024-01-30T12:26:25;10.80;99.90
45945;DHT22;31655;48.972;10.686;2024-01-30T12:28:54;10.70;99.90
45945;DHT22;31655;48.972;10.686;2024-01-30T12:31:26;10.60;99.90
45945;DHT22;31655;48.972;10.686;2024-01-30T12:33:53;10.40;99.90
45945;DHT22;31655;48.972;10.686;2024-01-30T12:36:18;10.40;99.90
45945;DHT22;31655;48.972;10.686;2024-01-30T12:38:44;10.10;99.90
45945;DHT22;31655;48.972;10.686;2024-01-30T12:41:10;11.70;99.90
45945;DHT22;31655;48.972;10.686;2024-01-30T12:43:36;12.20;99.90
45945;DHT22;31655;48.972;10.686;2024-01-30T12:46:03;10.50;99.90
45945;DHT22;31655;48.972;10.686;2024-01-30T12:48:28;12.30;99.90
45945;DHT22;31655;48.972;10.686;2024-01-30T12:50:55;11.60;99.90
45945;DHT22;31655;48.972;10.686;2024-01-30T12:53:21;10.60;99.90
45945;DHT22;31655;48.972;10.686;2024-01-30T12:55:47;10.60;99.90
45945;DHT22;31655;48.972;10.686;2024-01-30T12:58:12;12.10;99.90
45945;DHT22;31655;48.972;10.686;2024-01-30T13:00:38;10.50;99.90
45945;DHT22;31655;48.972;10.686;2024-01-30T13:03:04;10.50;99.90
45945;DHT22;31655;48.972;10.686;2024-01-30T13:05:29;10.50;99.90
45945;DHT22;31655;48.972;10.686;2024-01-30T13:07:55;10.40;99.90
45945;DHT22;31655;48.972;10.686;2024-01-30T13:10:22;10.20;99.90
45945;DHT22;31655;48.972;10.686;2024-01-30T13:12:48;10.30;99.90
45945;DHT22;31655;48.972;10.686;2024-01-30T13:15:14;10.30;99.90
45945;DHT22;31655;48.972;10.686;2024-01-30T13:17:40;10.30;99.90
45945;DHT22;31655;48.972;10.686;2024-01-30T13:20:08;10.30;99.90
45945;DHT22;31655;48.972;10.686;2024-01-30T13:22:34;10.50;99.90
45945;DHT22;31655;48.972;10.686;2024-01-30T13:24:59;10.40;99.90
45945;DHT22;31655;48.972;10.686;2024-01-30T13:27:25;11.30;99.90
45945;DHT22;31655;48.972;10.686;2024-01-30T13:29:50;10.40;99.90
45945;DHT22;31655;48.972;10.686;2024-01-30T13:32:16;10.50;99.90
45945;DHT22;31655;48.972;10.686;2024-01-30T13:34:41;12.60;99.90
45945;DHT22;31655;48.972;10.686;2024-01-30T13:37:08;10.70;99.90
45945;DHT22;31655;48.972;10.686;2024-01-30T13:39:34;10.60;99.90
45945;DHT22;31655;48.972;10.686;2024-01-30T13:41:59;10.50;99.90
45945;DHT22;31655;48.972;10.686;2024-01-30T13:44:25;10.60;99.90
45945;DHT22;31655;48.972;10.686;2024-01-30T13:46:50;10.60;99.90
45945;DHT22;31655;48.972;10.686;2024-01-30T13:49:16;10.50;99.90
45945;DHT22;31655;48.972;10.686;2024-01-30T13:51:42;10.30;99.90
45945;DHT22;31655;48.972;10.686;2024-01-30T13:54:07;10.70;99.90
45945;DHT22;31655;48.972;10.686;2024-01-30T13:56:33;11.20;99.90
45945;DHT22;31655;48.972;10.686;2024-01-30T13:58:59;11.70;99.90
45945;DHT22;31655;48.972;10.686;2024-01-30T14:01:26;9.80;99.90
45945;DHT22;31655;48.972;10.686;2024-01-30T14:03:52;9.70;99.90
45945;DHT22;31655;48.972;10.686;2024-01-30T14:06:18;9.80;99.90
45945;DHT22;31655;48.972;10.686;2024-01-30T14:08:44;9.80;99.90
45945;DHT22;31655;48.972;10.686;2024-01-30T14:11:10;9.70;99.90
45945;DHT22;31655;48.972;10.686;2024-01-30T14:13:35;9.70;99.90
45945;DHT22;31655;48.972;10.686;2024-01-30T14:16:01;9.40;99.90
45945;DHT22;31655;48.972;10.686;2024-01-30T14:18:27;10.70;99.90
45945;DHT22;31655;48.972;10.686;2024-01-30T14:20:52;11.60;99.90
45945;DHT22;31655;48.972;10.686;2024-01-30T14:23:18;9.80;99.90
45945;DHT22;31655;48.972;10.686;2024-01-30T14:25:44;9.70;99.90
45945;DHT22;31655;48.972;10.686;2024-01-30T14:28:10;10.00;99.90
45945;DHT22;31655;48.972;10.686;2024-01-30T14:30:35;9.90;99.90
45945;DHT22;31655;48.972;10.686;2024-01-30T14:33:01;9.90;99.90
45945;DHT22;31655;48.972;10.686;2024-01-30T14:35:27;9.80;99.90
45945;DHT22;31655;48.972;10.686;2024-01-30T14:37:53;9.60;99.90
45945;DHT22;31655;48.972;10.686;2024-01-30T14:40:19;12.10;99.90
45945;DHT22;31655;48.972;10.686;2024-01-30T14:42:45;9.60;99.90
45945;DHT22;31655;48.972;10.686;2024-01-30T14:45:11;9.60;99.90
45945;DHT22;31655;48.972;10.686;2024-01-30T14:47:37;9.50;99.90
45945;DHT22;31655;48.972;10.686;2024-01-30T14:50:04;9.40;99.90
45945;DHT22;31655;48.972;10.686;2024-01-30T14:52:30;9.30;99.90
45945;DHT22;31655;48.972;10.686;2024-01-30T14:54:57;9.30;99.90
45945;DHT22;31655;48.972;10.686;2024-01-30T14:57:23;9.10;99.90
45945;DHT22;31655;48.972;10.686;2024-01-30T14:59:49;9.00;99.90
45945;DHT22;31655;48.972;10.686;2024-01-30T15:02:14;8.90;99.90
45945;DHT22;31655;48.972;10.686;2024-01-30T15:04:40;8.80;99.90
45945;DHT22;31655;48.972;10.686;2024-01-30T15:07:06;8.70;99.90
45945;DHT22;31655;48.972;10.686;2024-01-30T15:09:31;8.60;99.90
45945;DHT22;31655;48.972;10.686;2024-01-30T15:11:57;8.50;99.90
45945;DHT22;31655;48.972;10.686;2024-01-30T15:14:23;8.40;99.90
45945;DHT22;31655;48.972;10.686;2024-01-30T15:16:49;8.40;99.90
45945;DHT22;31655;48.972;10.686;2024-01-30T15:19:15;10.40;99.90
45945;DHT22;31655;48.972;10.686;2024-01-30T15:21:40;9.70;99.90
45945;DHT22;31655;48.972;10.686;2024-01-30T15:24:06;8.10;99.90
45945;DHT22;31655;48.972;10.686;2024-01-30T15:26:32;8.00;99.90
45945;DHT22;31655;48.972;10.686;2024-01-30T15:28:57;7.90;99.90
45945;DHT22;31655;48.972;10.686;2024-01-30T15:31:23;7.80;99.90
45945;DHT22;31655;48.972;10.686;2024-01-30T15:33:49;8.00;99.90
45945;DHT22;31655;48.972;10.686;2024-01-30T15:36:14;7.80;99.90
45945;DHT22;31655;48.972;10.686;2024-01-30T15:38:40;7.70;99.90
45945;DHT22;31655;48.972;10.686;2024-01-30T15:41:06;7.70;99.90
45945;DHT22;31655;48.972;10.686;2024-01-30T15:43:32;7.60;99.90
45945;DHT22;31655;48.972;10.686;2024-01-30T15:45:58;7.50;99.90